Iliamna Airport Iliamna US
ICAO: PAIL
IATA:
Category: Medium
Scheduled Services:

Elevation: 192 ft
TransAlt. 18000 ft.

Airport Communications:
ASOS:134.95
ATIS:134.95
ANCHORAGE CNTR:118.8
CTAF:123.6
RDO:123.6
KENAI RDO:121.2
KENAI RDO:122.2

PAIL Zoom In..

If you have problems with the map follow the link
https://www.worldairports.se/pages/airport.php?
ICAO=PAIL

Runways:

(A) RW 07 length 5086 ft width 100 ft
---- / hdg 76

(B) RW 17 length 4800 ft width 100 ft
---- / hdg 172

(C) RW 25 length 5086 ft width 100 ft
---- / hdg 256

(D) RW 35 length 4800 ft width 100 ft
---- / hdg 352

Location; PAIL
Day. 23 / Time. 21.53 Zulu
* Altimeter: 29.76
* Temperature: -14° c. -6.8°f.
* Wind from: 330° Speed 12 kn with Gusts up to 21 kn.
Dewpoint: -20° c.
Visibility: 10 Statute Miles.
Clouds: Clear (automated report).

PAIL 232153Z 33012G21KT 10SM CLR M14/M20 A2976 RMK AO2 SLP084 T11391200


Wind From 330°
Speed 12 kn.

 
 
jpsmedia worldairports.se 2020   terms of use